Time;durP1;ratioP1;P1;durP2;ratioP2;P2;SDS_P1;SDS_P2;PMS_P1;PMS_P2;Temp;Humidity;BMP_temperature;BMP_pressure;BME280_temperature;BME280_humidity;BME280_pressure;Samples;Min_cycle;Max_cycle;Signal;HPM_P1;HPM_P2
2024/02/13 00:01:41;;;;;;;0.95;0.95;;;;;;;-0.61;97.08;99554.50;5048076;28;20028;-69
2024/02/13 00:04:08;;;;;;;4.78;1.63;;;;;;;-0.64;97.32;99556.97;5065312;28;20021;-70
2024/02/13 00:06:34;;;;;;;1.42;1.35;;;;;;;-0.52;97.23;99569.13;5047953;28;20029;-69
2024/02/13 00:09:00;;;;;;;1.25;1.15;;;;;;;-0.53;97.21;99558.06;5066030;28;20433;-68
2024/02/13 00:11:25;;;;;;;0.77;0.77;;;;;;;-0.54;97.21;99566.56;5065725;28;20036;-69
2024/02/13 00:13:50;;;;;;;1.52;1.42;;;;;;;-0.55;97.22;99561.41;5065474;28;20032;-69
2024/02/13 00:16:20;;;;;;;0.98;0.98;;;;;;;-0.55;97.37;99567.38;5065388;28;20021;-69
2024/02/13 00:18:52;;;;;;;1.50;1.25;;;;;;;-0.56;97.55;99572.44;5065468;28;20499;-68
2024/02/13 00:21:17;;;;;;;;;;;;;;;-0.51;97.10;99574.28;5048334;28;20025;-69
2024/02/13 00:23:43;;;;;;;0.85;0.85;;;;;;;-0.56;97.11;99572.44;5047554;28;20004;-69
2024/02/13 00:26:09;;;;;;;1.63;1.52;;;;;;;-0.56;97.39;99563.09;5065331;28;20025;-69
2024/02/13 00:28:37;;;;;;;0.70;0.70;;;;;;;-0.57;97.31;99569.03;5047623;28;20024;-69
2024/02/13 00:31:07;;;;;;;1.00;1.00;;;;;;;-0.58;97.27;99569.88;5065300;28;20025;-69
2024/02/13 00:33:33;;;;;;;1.95;1.38;;;;;;;-0.64;97.40;99569.72;5065078;28;20023;-69
2024/02/13 00:35:58;;;;;;;0.63;0.63;;;;;;;-0.59;97.19;99574.94;5047092;28;20040;-68
2024/02/13 00:38:24;;;;;;;1.20;1.17;;;;;;;-0.60;97.33;99560.44;5065122;28;20032;-69
2024/02/13 00:40:49;;;;;;;0.95;0.95;;;;;;;-0.61;97.33;99572.34;5065267;28;20021;-69
2024/02/13 00:43:19;;;;;;;1.13;0.88;;;;;;;-0.60;97.37;99575.72;5065045;28;20021;-69
2024/02/13 00:45:45;;;;;;;1.10;1.00;;;;;;;-0.59;97.30;99567.28;5047010;28;20032;-70
2024/02/13 00:48:10;;;;;;;0.63;0.63;;;;;;;-0.64;97.45;99573.13;5065002;28;20334;-69
2024/02/13 00:50:35;;;;;;;0.85;0.82;;;;;;;-0.64;97.34;99567.19;5065216;28;20025;-70
2024/02/13 00:53:01;;;;;;;5.63;1.67;;;;;;;-0.65;97.55;99571.41;5046733;28;20025;-70
2024/02/13 00:55:27;;;;;;;1.77;1.67;;;;;;;-0.61;97.55;99572.34;5064885;28;20474;-69
2024/02/13 00:57:52;;;;;;;1.00;1.00;;;;;;;-0.59;97.53;99577.47;5046803;28;20020;-69
2024/02/13 01:00:18;;;;;;;1.23;1.23;;;;;;;-0.67;97.48;99569.66;5064821;28;20021;-69
2024/02/13 01:02:44;;;;;;;1.83;1.52;;;;;;;-0.66;97.32;99582.44;5065016;28;20045;-69
2024/02/13 01:05:09;;;;;;;1.75;1.65;;;;;;;-0.69;97.53;99576.38;5046648;28;20017;-69
2024/02/13 01:07:35;;;;;;;2.38;1.02;;;;;;;-0.69;97.57;99572.16;5064847;28;20020;-69
2024/02/13 01:10:01;;;;;;;0.90;0.90;;;;;;;-0.73;97.67;99569.47;5046866;28;20381;-68
2024/02/13 01:12:27;;;;;;;3.42;1.73;;;;;;;-0.76;97.81;99575.38;5064725;28;20358;-70
2024/02/13 01:14:52;;;;;;;2.90;2.60;;;;;;;-0.74;97.47;99573.72;5064602;28;20035;-70
2024/02/13 01:17:18;;;;;;;0.70;0.70;;;;;;;-0.70;97.84;99584.88;5064639;28;20218;-70
2024/02/13 01:19:48;;;;;;;1.10;1.00;;;;;;;-0.66;97.56;99590.09;5046523;28;20028;-70
2024/02/13 01:22:14;;;;;;;1.48;1.38;;;;;;;-0.61;97.62;99597.84;5064832;28;20029;-70
2024/02/13 01:24:40;;;;;;;2.58;1.90;;;;;;;-0.62;97.69;99588.44;5046555;28;20136;-69
2024/02/13 01:27:06;;;;;;;1.80;1.48;;;;;;;-0.56;97.82;99603.03;5064608;28;20046;-69
2024/02/13 01:29:34;;;;;;;0.80;0.77;;;;;;;-0.53;97.64;99598.88;5046628;28;20025;-68
2024/02/13 01:32:00;;;;;;;6.13;1.65;;;;;;;-0.60;97.58;99599.56;5046720;28;20089;-68
2024/02/13 01:34:26;;;;;;;3.15;1.83;;;;;;;-0.57;97.54;99602.19;5064362;28;20021;-69
2024/02/13 01:36:51;;;;;;;1.92;1.75;;;;;;;-0.66;97.44;99597.72;5046721;28;20032;-68
2024/02/13 01:39:17;;;;;;;2.25;2.15;;;;;;;-0.61;97.54;99609.72;5064506;28;20021;-68
2024/02/13 01:41:42;;;;;;;0.60;0.60;;;;;;;-0.66;97.41;99596.84;5064706;28;20529;-68
2024/02/13 01:44:08;;;;;;;3.20;1.95;;;;;;;-0.58;97.50;99612.34;5064392;28;20029;-68
2024/02/13 01:46:34;;;;;;;1.45;1.35;;;;;;;-0.59;97.51;99608.91;5067794;28;20021;-68
2024/02/13 01:49:00;;;;;;;7.57;1.35;;;;;;;-0.63;97.51;99605.44;5050519;28;20400;-68
2024/02/13 01:51:28;;;;;;;1.00;1.00;;;;;;;-0.61;97.66;99610.59;5067921;28;20032;-68
2024/02/13 01:54:01;;;;;;;1.23;1.13;;;;;;;-0.60;97.69;99616.53;5068237;28;20039;-68
2024/02/13 01:56:29;;;;;;;0.68;0.68;;;;;;;-0.63;97.63;99613.09;5068138;28;20049;-68
2024/02/13 01:58:56;;;;;;;3.92;1.00;;;;;;;-0.64;97.52;99615.63;5050355;28;20016;-69
2024/02/13 02:01:21;;;;;;;3.10;2.90;;;;;;;-0.63;97.34;99613.09;5067311;28;20436;-68
2024/02/13 02:03:48;;;;;;;0.77;0.77;;;;;;;-0.58;97.46;99615.75;5067622;28;20025;-69
2024/02/13 02:06:16;;;;;;;0.80;0.80;;;;;;;-0.60;97.49;99616.53;5050113;28;20127;-69
2024/02/13 02:08:42;;;;;;;1.15;0.90;;;;;;;-0.61;97.50;99615.69;5050287;28;20025;-69
2024/02/13 02:11:09;;;;;;;2.83;2.40;;;;;;;-0.67;97.70;99605.34;5050299;28;20146;-68
2024/02/13 02:13:35;;;;;;;1.02;1.02;;;;;;;-0.65;97.77;99606.22;5049947;28;20024;-70
2024/02/13 02:16:00;;;;;;;3.05;2.00;;;;;;;-0.65;97.80;99611.31;5068090;28;20021;-69
2024/02/13 02:18:26;;;;;;;2.20;1.25;;;;;;;-0.58;97.76;99612.34;5049857;28;20021;-69
2024/02/13 02:20:51;;;;;;;1.90;1.38;;;;;;;-0.62;97.74;99608.84;5067935;28;20048;-68
2024/02/13 02:23:20;;;;;;;2.13;2.03;;;;;;;-0.64;97.72;99613.06;5068012;28;20021;-68
2024/02/13 02:25:46;;;;;;;3.45;2.97;;;;;;;-0.64;97.47;99613.91;5049636;28;20028;-68
2024/02/13 02:28:11;;;;;;;5.82;1.42;;;;;;;-0.60;97.61;99625.06;5068040;28;20024;-69
2024/02/13 02:30:37;;;;;;;2.35;2.17;;;;;;;-0.58;97.60;99628.50;5049980;28;20024;-68
2024/02/13 02:33:02;;;;;;;1.75;1.17;;;;;;;-0.58;97.45;99631.06;5049766;28;20075;-68
2024/02/13 02:35:28;;;;;;;1.77;1.67;;;;;;;-0.63;97.46;99627.53;5049614;28;20024;-68
2024/02/13 02:37:53;;;;;;;0.95;0.95;;;;;;;-0.69;97.49;99629.94;5067456;28;20374;-68
2024/02/13 02:40:19;;;;;;;8.32;1.35;;;;;;;-0.75;97.26;99623.84;5067425;28;20021;-68
2024/02/13 02:42:48;;;;;;;0.60;0.60;;;;;;;-0.71;97.12;99634.13;5067579;28;20027;-68
2024/02/13 02:45:15;;;;;;;3.70;2.38;;;;;;;-0.76;97.32;99629.78;5067041;28;20025;-68
2024/02/13 02:47:41;;;;;;;2.00;1.25;;;;;;;-0.71;97.34;99631.56;5067385;28;20025;-68
2024/02/13 02:50:07;;;;;;;5.68;2.38;;;;;;;-0.72;97.15;99635.81;5067316;28;20033;-68
2024/02/13 02:52:32;;;;;;;1.30;1.20;;;;;;;-0.70;97.21;99633.31;5067244;28;20108;-68
2024/02/13 02:54:58;;;;;;;1.33;1.23;;;;;;;-0.72;97.32;99629.84;5067078;28;20029;-68
2024/02/13 02:57:24;;;;;;;1.00;1.00;;;;;;;-0.83;97.50;99645.72;5066220;28;20045;-68
2024/02/13 02:59:49;;;;;;;2.55;2.35;;;;;;;-0.81;97.12;99646.63;5067125;28;20025;-68
2024/02/13 03:02:15;;;;;;;1.65;1.55;;;;;;;-0.86;97.41;99644.81;5067220;28;20025;-67
2024/02/13 03:04:40;;;;;;;0.85;0.80;;;;;;;-0.84;97.58;99654.19;5067008;28;20012;-67
2024/02/13 03:07:06;;;;;;;1.40;1.30;;;;;;;-0.81;97.61;99659.38;5067115;28;20024;-67
2024/02/13 03:09:31;;;;;;;1.67;1.58;;;;;;;-0.79;97.40;99657.75;5049197;28;20025;-68
2024/02/13 03:11:57;;;;;;;1.70;1.60;;;;;;;-0.86;97.59;99658.38;5066956;28;20024;-68
2024/02/13 03:14:22;;;;;;;4.22;1.30;;;;;;;-0.83;97.44;99660.16;5066412;28;20067;-67
2024/02/13 03:16:49;;;;;;;1.50;1.40;;;;;;;-0.82;97.37;99662.75;5067096;28;20028;-69
2024/02/13 03:19:14;;;;;;;1.58;1.25;;;;;;;-0.84;97.39;99664.41;5048661;28;20139;-68
2024/02/13 03:21:40;;;;;;;1.45;1.35;;;;;;;-0.88;97.33;99668.53;5048879;28;20025;-68
2024/02/13 03:24:05;;;;;;;2.40;1.45;;;;;;;-0.92;97.39;99686.25;5048993;28;20098;-67
2024/02/13 03:26:31;;;;;;;1.27;1.20;;;;;;;-1.06;97.38;99678.25;5066555;28;20025;-67
2024/02/13 03:28:57;;;;;;;0.82;0.82;;;;;;;-1.02;97.30;99690.25;5066889;28;20029;-68
2024/02/13 03:31:22;;;;;;;7.15;1.38;;;;;;;-1.11;97.61;99695.97;5048636;28;20025;-67
2024/02/13 03:33:48;;;;;;;3.67;3.22;;;;;;;-1.09;97.19;99698.53;5066526;28;20084;-67
2024/02/13 03:36:17;;;;;;;1.90;1.05;;;;;;;-1.04;97.29;99702.94;5066611;28;20084;-68
2024/02/13 03:38:49;;;;;;;4.15;2.75;;;;;;;-1.13;97.10;99701.00;5048898;28;20349;-67
2024/02/13 03:41:15;;;;;;;0.80;0.80;;;;;;;-1.10;97.12;99696.84;5066404;28;20081;-66
2024/02/13 03:43:44;;;;;;;1.15;1.15;;;;;;;-1.14;97.22;99693.31;5065964;28;20021;-67
2024/02/13 03:46:10;;;;;;;1.05;1.05;;;;;;;-1.15;97.23;99697.53;5066188;28;20020;-67
2024/02/13 03:48:36;;;;;;;0.70;0.70;;;;;;;-1.17;96.91;99695.78;5048124;28;20039;-67
2024/02/13 03:51:02;;;;;;;2.40;2.22;;;;;;;-1.27;97.22;99697.22;5066376;28;20085;-68
2024/02/13 03:53:27;;;;;;;1.88;1.77;;;;;;;-1.27;97.05;99695.53;5065842;28;20021;-67
2024/02/13 03:55:53;;;;;;;0.90;0.90;;;;;;;-1.35;97.34;99701.22;5065882;28;20117;-68
2024/02/13 03:58:18;;;;;;;1.05;1.02;;;;;;;-1.33;97.14;99718.28;5066201;28;20033;-68
2024/02/13 04:00:44;;;;;;;0.80;0.80;;;;;;;-1.28;96.93;99713.31;5047937;28;20020;-68
2024/02/13 04:03:11;;;;;;;1.20;1.10;;;;;;;-1.24;97.23;99717.66;5066300;28;20370;-67
2024/02/13 04:05:38;;;;;;;1.65;1.55;;;;;;;-1.25;97.29;99718.50;5047836;28;20039;-68
2024/02/13 04:08:07;;;;;;;1.52;1.42;;;;;;;-1.23;97.36;99721.09;5047736;28;20033;-68
2024/02/13 04:10:36;;;;;;;1.48;1.38;;;;;;;-1.20;97.31;99731.38;5066016;28;20076;-69
2024/02/13 04:13:01;;;;;;;0.68;0.68;;;;;;;-1.25;97.24;99721.88;5065780;28;20074;-68
2024/02/13 04:15:26;;;;;;;0.75;0.75;;;;;;;-1.19;97.13;99733.97;5065652;28;20052;-67
2024/02/13 04:17:52;;;;;;;3.97;2.17;;;;;;;-1.19;97.25;99728.00;5047919;28;20121;-68
2024/02/13 04:20:17;;;;;;;1.40;1.33;;;;;;;-1.18;97.45;99732.28;5065624;28;20083;-68
2024/02/13 04:22:43;;;;;;;0.75;0.75;;;;;;;-1.28;97.54;99723.50;5065796;28;20044;-67
2024/02/13 04:25:09;;;;;;;1.35;1.25;;;;;;;-1.21;97.19;99724.53;5047704;28;20025;-67
2024/02/13 04:27:38;;;;;;;1.42;1.33;;;;;;;-1.19;97.29;99728.88;5065599;28;20415;-67
2024/02/13 04:30:05;;;;;;;2.55;1.83;;;;;;;-1.15;97.34;99722.19;5065692;28;20036;-67
2024/02/13 04:32:31;;;;;;;1.88;1.27;;;;;;;-1.12;97.36;99735.00;5065326;28;20077;-67
2024/02/13 04:34:56;;;;;;;1.50;1.40;;;;;;;-1.14;97.66;99727.31;5047338;28;20032;-68
2024/02/13 04:37:22;;;;;;;3.15;2.08;;;;;;;-1.09;97.63;99729.13;5065706;28;20031;-69
2024/02/13 04:39:47;;;;;;;1.02;1.02;;;;;;;-1.08;97.63;99725.75;5065252;28;20074;-68
2024/02/13 04:42:15;;;;;;;0.68;0.68;;;;;;;-1.14;97.72;99716.25;5065407;28;20025;-67
2024/02/13 04:44:40;;;;;;;1.63;1.52;;;;;;;-1.12;97.42;99718.00;5065332;28;20025;-67
2024/02/13 04:47:06;;;;;;;1.95;1.27;;;;;;;-1.22;97.48;99703.31;5065280;28;20020;-67
2024/02/13 04:49:32;;;;;;;1.65;1.55;;;;;;;-1.19;97.25;99712.72;5064982;28;20021;-67
2024/02/13 04:51:57;;;;;;;0.60;0.60;;;;;;;-1.25;97.18;99708.31;5065259;28;20112;-67
2024/02/13 04:54:23;;;;;;;0.77;0.77;;;;;;;-1.33;96.81;99715.75;5064943;28;20028;-67
2024/02/13 04:56:48;;;;;;;3.15;2.88;;;;;;;-1.46;96.62;99698.38;5046887;28;20053;-67
2024/02/13 04:59:15;;;;;;;1.30;0.77;;;;;;;-1.50;96.45;99713.56;5047134;28;20031;-67
2024/02/13 05:01:45;;;;;;;0.70;0.70;;;;;;;-1.66;96.40;99702.03;5065067;28;20028;-67
2024/02/13 05:09:23;;;;;;;1.85;1.75;;;;;;;-1.90;96.13;99713.19;5064761;28;20028;-67
2024/02/13 05:11:49;;;;;;;0.82;0.80;;;;;;;-1.94;95.96;99706.31;5064929;28;20040;-68
2024/02/13 05:14:14;;;;;;;1.95;1.85;;;;;;;-1.94;96.06;99711.38;5064635;28;20100;-69
2024/02/13 05:16:41;;;;;;;6.15;1.80;;;;;;;-2.01;95.88;99709.44;5064665;28;20036;-69
2024/02/13 05:19:06;;;;;;;1.98;1.70;;;;;;;-2.01;96.10;99717.09;5064949;28;20025;-68
2024/02/13 05:21:34;;;;;;;2.53;2.33;;;;;;;-2.04;96.28;99722.06;5064243;28;20029;-67
2024/02/13 05:24:00;;;;;;;1.05;1.02;;;;;;;-2.08;95.94;99720.25;5047422;28;20025;-67
2024/02/13 05:26:25;;;;;;;1.35;1.27;;;;;;;-2.15;95.81;99726.81;5046807;28;20025;-68
2024/02/13 05:28:51;;;;;;;4.88;2.03;;;;;;;-2.20;95.75;99733.44;5064727;28;20035;-68
2024/02/13 05:31:17;;;;;;;2.42;2.33;;;;;;;-2.24;95.88;99735.03;5046868;28;20048;-68
2024/02/13 05:33:44;;;;;;;6.00;2.15;;;;;;;-2.31;96.05;99743.25;5064762;28;20116;-67
2024/02/13 05:36:09;;;;;;;2.75;2.55;;;;;;;-2.30;95.91;99750.09;5046941;28;20041;-70
2024/02/13 05:38:39;;;;;;;0.85;0.85;;;;;;;-2.35;96.06;99743.97;5065215;28;20044;-67
2024/02/13 05:41:05;;;;;;;2.53;2.33;;;;;;;-2.45;95.92;99745.34;5064697;28;20025;-64
2024/02/13 05:43:30;;;;;;;1.13;1.05;;;;;;;-2.44;95.50;99752.16;5064248;28;20390;-67
2024/02/13 05:45:56;;;;;;;2.53;2.40;;;;;;;-2.50;95.50;99750.28;5064749;28;20025;-67
2024/02/13 05:48:22;;;;;;;4.28;1.50;;;;;;;-2.49;95.49;99754.53;5046472;28;20017;-67
2024/02/13 05:50:50;;;;;;;0.75;0.75;;;;;;;-2.54;95.37;99745.91;5064661;28;20025;-67
2024/02/13 05:53:15;;;;;;;2.13;1.58;;;;;;;-2.51;95.46;99758.72;5064330;28;20032;-67
2024/02/13 05:55:41;;;;;;;2.78;1.73;;;;;;;-2.53;95.38;99761.22;5046207;28;20053;-67
2024/02/13 05:58:06;;;;;;;1.40;1.30;;;;;;;-2.64;95.29;99732.88;5064641;28;20032;-67
2024/02/13 06:00:32;;;;;;;1.05;0.93;;;;;;;-2.55;95.27;99752.66;5063823;28;20021;-67
2024/02/13 06:03:00;;;;;;;3.40;2.15;;;;;;;-2.47;95.59;99768.16;5063210;28;20031;-67
2024/02/13 06:05:26;;;;;;;0.90;0.90;;;;;;;-2.44;95.54;99767.41;5046253;28;20013;-68
2024/02/13 06:07:51;;;;;;;4.03;2.13;;;;;;;-2.36;95.72;99771.06;5064498;28;20264;-68
2024/02/13 06:10:17;;;;;;;2.97;2.53;;;;;;;-2.38;96.01;99765.94;5064389;28;20025;-69
2024/02/13 06:12:43;;;;;;;5.25;1.23;;;;;;;-2.24;95.65;99780.81;5046653;28;20025;-69
2024/02/13 06:15:09;;;;;;;1.88;1.20;;;;;;;-2.24;95.92;99780.81;5064183;28;20046;-68
2024/02/13 06:17:36;;;;;;;0.60;0.60;;;;;;;-2.14;96.08;99787.06;5064342;28;20378;-68
2024/02/13 06:20:05;;;;;;;1.23;1.23;;;;;;;-2.12;96.08;99780.34;5064232;28;20025;-68
2024/02/13 06:22:34;;;;;;;1.00;1.00;;;;;;;-2.12;96.12;99781.22;5064446;28;20025;-68
2024/02/13 06:25:04;;;;;;;2.70;2.40;;;;;;;-2.03;96.04;99784.88;5046240;28;20571;-68
2024/02/13 06:27:32;;;;;;;3.20;1.75;;;;;;;-1.98;96.17;99795.19;5064233;28;20031;-68
2024/02/13 06:29:58;;;;;;;2.83;1.77;;;;;;;-2.07;96.26;99788.13;5064161;28;20420;-68
2024/02/13 06:32:24;;;;;;;0.70;0.70;;;;;;;-2.14;95.91;99776.91;5048774;28;20043;-67
2024/02/13 06:34:49;;;;;;;1.65;1.58;;;;;;;-2.02;95.76;99797.66;5066206;28;20056;-68
2024/02/13 06:37:15;;;;;;;1.80;1.70;;;;;;;-2.02;95.76;99796.78;5066745;28;20025;-69
2024/02/13 06:39:40;;;;;;;2.30;2.20;;;;;;;-1.98;95.91;99800.28;5067524;28;20028;-68
2024/02/13 06:42:06;;;;;;;2.03;1.92;;;;;;;-2.00;95.99;99803.63;5067716;28;20159;-70
2024/02/13 06:44:31;;;;;;;4.30;3.53;;;;;;;-1.98;96.01;99805.38;5067855;28;20017;-69
2024/02/13 06:46:58;;;;;;;1.77;1.67;;;;;;;-1.95;96.11;99808.88;5067707;28;20028;-69
2024/02/13 06:49:24;;;;;;;0.75;0.75;;;;;;;-1.90;96.17;99809.06;5067564;28;20025;-69
2024/02/13 06:51:49;;;;;;;3.28;2.83;;;;;;;-1.88;96.30;99823.53;5067780;28;20064;-69
2024/02/13 06:54:14;;;;;;;4.97;2.53;;;;;;;-1.84;96.19;99821.97;5067490;28;20025;-69
2024/02/13 06:56:41;;;;;;;6.93;2.25;;;;;;;-1.82;96.35;99817.78;5049168;28;20101;-69
2024/02/13 06:59:07;;;;;;;4.38;1.42;;;;;;;-1.78;96.59;99826.38;5067748;28;20017;-69
2024/02/13 07:01:33;;;;;;;2.50;2.35;;;;;;;-1.72;96.64;99834.22;5067533;28;20025;-69
2024/02/13 07:03:58;;;;;;;2.42;1.80;;;;;;;-1.65;96.73;99830.19;5066997;28;20087;-69
2024/02/13 07:06:23;;;;;;;14.07;2.33;;;;;;;-1.57;96.68;99841.50;5049382;28;20021;-68
2024/02/13 07:08:49;;;;;;;0.90;0.90;;;;;;;-1.52;96.70;99829.75;5067216;28;20052;-69
2024/02/13 07:11:14;;;;;;;3.70;2.15;;;;;;;-1.53;96.63;99827.16;5067141;28;20021;-69
2024/02/13 07:13:39;;;;;;;0.95;0.95;;;;;;;-1.52;96.54;99836.53;5067073;28;20025;-69
2024/02/13 07:16:06;;;;;;;5.25;3.80;;;;;;;-1.51;96.54;99836.59;5049049;28;20079;-69
2024/02/13 07:18:33;;;;;;;0.68;0.68;;;;;;;-1.45;96.73;99837.59;5049409;28;20133;-68
2024/02/13 07:20:59;;;;;;;6.25;1.52;;;;;;;-1.41;96.55;99842.84;5049073;28;20024;-68
2024/02/13 07:23:24;;;;;;;1.63;1.48;;;;;;;-1.41;96.61;99834.31;5066831;28;20044;-68
2024/02/13 07:25:50;;;;;;;2.20;2.08;;;;;;;-1.38;96.42;99850.56;5066779;28;20030;-69
2024/02/13 07:28:15;;;;;;;1.10;0.98;;;;;;;-1.40;96.38;99847.09;5066815;28;20059;-69
2024/02/13 07:30:40;;;;;;;2.63;1.35;;;;;;;-1.49;96.22;99841.72;5066811;28;20031;-68
2024/02/13 07:33:06;;;;;;;3.03;2.25;;;;;;;-1.45;96.52;99846.09;5066922;28;20108;-69
2024/02/13 07:35:31;;;;;;;1.95;1.35;;;;;;;-1.41;96.62;99849.59;5066392;28;20108;-70
2024/02/13 07:37:58;;;;;;;0.95;0.95;;;;;;;-1.35;96.65;99854.88;5048701;28;20029;-70
2024/02/13 07:40:23;;;;;;;1.65;1.55;;;;;;;-1.33;96.46;99858.34;5066643;28;20017;-70
2024/02/13 07:42:49;;;;;;;0.88;0.88;;;;;;;-1.41;96.24;99857.25;5047874;28;20059;-69
2024/02/13 07:45:14;;;;;;;3.53;2.65;;;;;;;-1.35;96.52;99859.09;5066538;28;20085;-70
2024/02/13 07:47:41;;;;;;;1.15;1.15;;;;;;;-1.35;96.51;99861.66;5066543;28;20025;-69
2024/02/13 07:50:07;;;;;;;0.85;0.85;;;;;;;-1.41;96.07;99854.69;5048194;28;20020;-70
2024/02/13 07:52:33;;;;;;;0.60;0.60;;;;;;;-1.52;95.67;99856.91;5066298;28;20028;-70
2024/02/13 07:54:59;;;;;;;2.17;0.95;;;;;;;-1.57;95.58;99849.13;5066127;28;20025;-68
2024/02/13 07:57:28;;;;;;;1.00;1.00;;;;;;;-1.59;95.44;99854.97;5066164;28;20059;-68
2024/02/13 07:59:54;;;;;;;2.00;1.77;;;;;;;-1.71;95.88;99840.19;5066489;28;20100;-69
2024/02/13 08:02:22;;;;;;;5.68;3.28;;;;;;;-1.55;96.17;99856.81;5066181;28;20021;-69
2024/02/13 08:04:48;;;;;;;1.05;1.05;;;;;;;-1.50;95.91;99866.31;5065956;28;20312;-70
2024/02/13 08:07:13;;;;;;;0.93;0.93;;;;;;;-1.51;95.91;99866.28;5047982;28;20396;-69
2024/02/13 08:09:39;;;;;;;2.05;1.75;;;;;;;-1.50;96.44;99865.44;5047796;28;20037;-69
2024/02/13 08:12:06;;;;;;;2.30;2.17;;;;;;;-1.36;96.70;99871.00;5066237;28;20272;-69
2024/02/13 08:14:36;;;;;;;5.20;2.00;;;;;;;-1.28;96.78;99872.06;5048061;28;20103;-69
2024/02/13 08:17:06;;;;;;;2.10;1.92;;;;;;;-1.24;96.71;99862.84;5065799;28;20048;-70
2024/02/13 08:19:33;;;;;;;2.53;1.92;;;;;;;-1.24;96.64;99862.84;5065880;28;20025;-69
2024/02/13 08:22:00;;;;;;;1.60;1.50;;;;;;;-1.18;96.81;99857.09;5047731;28;20160;-70
2024/02/13 08:24:26;;;;;;;1.15;0.88;;;;;;;-1.18;96.73;99857.94;5065844;28;20461;-70
2024/02/13 08:26:52;;;;;;;0.93;0.80;;;;;;;-1.14;96.59;99869.09;5065724;28;20032;-69
2024/02/13 08:29:18;;;;;;;2.85;2.65;;;;;;;-1.19;96.21;99863.00;5065712;28;20021;-69
2024/02/13 08:31:44;;;;;;;1.73;1.63;;;;;;;-1.18;96.87;99857.09;5065726;28;20095;-69
2024/02/13 08:34:09;;;;;;;1.70;1.60;;;;;;;-1.16;96.97;99846.13;5065575;28;20021;-69
2024/02/13 08:36:37;;;;;;;1.00;1.00;;;;;;;-1.06;96.97;99854.06;5065427;28;20024;-69
2024/02/13 08:39:02;;;;;;;2.63;1.77;;;;;;;-0.97;97.27;99861.09;5065361;28;20088;-69
2024/02/13 08:41:28;;;;;;;1.75;1.65;;;;;;;-0.93;97.01;99861.25;5065566;28;20028;-69
2024/02/13 08:43:54;;;;;;;0.80;0.80;;;;;;;-0.96;96.23;99860.28;5065326;28;20066;-69
2024/02/13 08:46:22;;;;;;;2.33;2.05;;;;;;;-0.99;96.28;99858.50;5065296;28;20074;-69
2024/02/13 08:48:47;;;;;;;0.68;0.68;;;;;;;-0.93;96.57;99861.25;5047034;28;20043;-69
2024/02/13 08:51:13;;;;;;;3.50;1.30;;;;;;;-0.93;96.02;99860.38;5047378;28;20459;-69
2024/02/13 08:53:39;;;;;;;2.58;2.38;;;;;;;-1.07;95.61;99850.63;5065531;28;20028;-69
2024/02/13 08:56:04;;;;;;;1.38;1.27;;;;;;;-1.06;95.19;99864.25;5046005;28;20049;-69
2024/02/13 08:58:30;;;;;;;1.98;1.88;;;;;;;-1.07;95.22;99867.63;5065092;28;20063;-69
2024/02/13 09:00:55;;;;;;;9.30;2.03;;;;;;;-1.07;95.56;99862.53;5065382;28;20021;-69
2024/02/13 09:03:20;;;;;;;2.53;2.25;;;;;;;-1.06;95.68;99857.47;5064961;28;20024;-68
2024/02/13 09:05:46;;;;;;;6.78;3.30;;;;;;;-1.02;96.07;99861.81;5047121;28;20088;-69
2024/02/13 09:08:11;;;;;;;0.60;0.60;;;;;;;-0.89;96.34;99865.63;5047195;28;20516;-69
2024/02/13 09:10:37;;;;;;;1.13;1.13;;;;;;;-0.89;95.14;99862.19;5065037;28;20021;-69
2024/02/13 09:13:03;;;;;;;1.05;1.05;;;;;;;-0.94;94.91;99861.22;5065291;28;20020;-69
2024/02/13 09:15:29;;;;;;;0.90;0.90;;;;;;;-0.95;94.99;99867.09;5064849;28;20021;-68
2024/02/13 09:17:55;;;;;;;1.90;1.40;;;;;;;-0.93;95.20;99865.47;5065211;28;20382;-69
2024/02/13 09:20:21;;;;;;;0.95;0.95;;;;;;;-0.93;95.84;99862.94;5046993;28;20192;-69
2024/02/13 09:22:47;;;;;;;5.43;1.95;;;;;;;-0.87;95.39;99865.66;5064903;28;20017;-69
2024/02/13 09:25:16;;;;;;;1.50;1.40;;;;;;;-0.84;96.05;99865.75;5064819;28;20020;-68
2024/02/13 09:27:48;;;;;;;0.95;0.77;;;;;;;-0.76;96.50;99854.09;5065152;28;20029;-70
2024/02/13 09:30:14;;;;;;;1.10;1.10;;;;;;;-0.51;96.80;99867.53;5064880;28;20021;-69
2024/02/13 09:32:40;;;;;;;6.18;1.70;;;;;;;-0.43;96.22;99860.09;5065068;28;20037;-70
2024/02/13 09:35:07;;;;;;;1.52;1.42;;;;;;;-0.39;96.30;99863.59;5064564;28;20036;-69
2024/02/13 09:37:39;;;;;;;2.40;2.15;;;;;;;-0.35;96.45;99872.22;5064947;28;20120;-69
2024/02/13 09:40:06;;;;;;;;;;;;;;;-0.26;96.27;99869.91;5065451;28;20025;-69
2024/02/13 09:42:32;;;;;;;4.00;1.20;;;;;;;-0.29;96.56;99846.88;5047223;28;19908;-69
2024/02/13 09:44:58;;;;;;;5.18;2.70;;;;;;;-0.17;96.52;99844.63;5064997;28;20016;-69
2024/02/13 09:47:26;;;;;;;0.70;0.70;;;;;;;-0.14;95.69;99834.50;5064902;28;20043;-69
2024/02/13 09:49:52;;;;;;;2.25;2.10;;;;;;;-0.18;95.32;99847.16;5046779;28;20021;-69
2024/02/13 09:52:19;;;;;;;1.05;1.05;;;;;;;-0.11;96.16;99846.47;5064873;28;20161;-68
2024/02/13 09:54:46;;;;;;;2.15;2.03;;;;;;;-0.06;96.36;99842.34;5064679;28;20504;-68
2024/02/13 09:57:12;;;;;;;2.33;1.70;;;;;;;0.06;96.20;99848.59;5064439;28;20071;-69
2024/02/13 09:59:38;;;;;;;2.95;1.88;;;;;;;0.08;95.51;99854.63;5064248;28;20017;-69
2024/02/13 10:02:05;;;;;;;2.47;2.17;;;;;;;0.05;95.54;99857.09;5045519;28;20020;-69
2024/02/13 10:04:31;;;;;;;0.80;0.80;;;;;;;0.05;95.30;99862.19;5045915;28;20014;-70
2024/02/13 10:06:57;;;;;;;1.25;0.95;;;;;;;0.05;95.13;99867.31;5049050;28;20035;-69
2024/02/13 10:09:24;;;;;;;1.50;1.40;;;;;;;0.01;95.46;99866.34;5050559;28;20044;-70
2024/02/13 10:11:51;;;;;;;2.22;1.75;;;;;;;0.02;94.86;99854.47;5068240;28;20037;-72
2024/02/13 10:14:21;;;;;;;1.60;1.50;;;;;;;-0.01;94.97;99856.09;5068327;28;20046;-69
2024/02/13 10:16:50;;;;;;;1.80;1.70;;;;;;;-0.01;94.85;99862.88;5050301;28;20021;-69
2024/02/13 10:19:21;;;;;;;5.68;3.00;;;;;;;-0.02;95.31;99872.22;5068265;28;20028;-70
2024/02/13 10:21:49;;;;;;;1.02;0.88;;;;;;;-0.04;95.60;99886.66;5068256;28;20478;-70
2024/02/13 10:24:15;;;;;;;1.52;1.42;;;;;;;-0.04;96.21;99879.00;5068186;28;20067;-69
2024/02/13 10:26:41;;;;;;;1.83;1.73;;;;;;;0.10;96.45;99889.56;5049942;28;20021;-70
2024/02/13 10:29:07;;;;;;;3.22;2.25;;;;;;;0.20;96.91;99882.13;5068282;28;20021;-71
2024/02/13 10:31:36;;;;;;;1.70;1.60;;;;;;;0.26;97.14;99884.84;5050128;28;20028;-72
2024/02/13 10:34:11;;;;;;;1.02;1.02;;;;;;;0.32;97.00;99887.53;5049741;28;20028;-70
2024/02/13 10:36:42;;;;;;;1.92;1.40;;;;;;;0.35;97.02;99891.88;5067843;28;20035;-71
2024/02/13 10:39:11;;;;;;;1.05;1.05;;;;;;;0.33;96.60;99886.75;5050102;28;20044;-71
2024/02/13 10:41:41;;;;;;;0.77;0.77;;;;;;;0.31;96.65;99869.63;5068105;28;20032;-72
2024/02/13 10:44:13;;;;;;;3.05;1.15;;;;;;;0.28;96.34;99870.44;5067815;28;20019;-72
2024/02/13 10:46:39;;;;;;;1.25;1.20;;;;;;;0.23;96.21;99865.22;5049908;28;20025;-72
2024/02/13 10:49:29;;;;;;;2.03;1.20;;;;;;;0.22;96.13;99858.34;5067731;28;20094;-71
2024/02/13 10:51:56;;;;;;;0.60;0.60;;;;;;;0.21;95.65;99859.19;5067750;28;20032;-71
2024/02/13 10:54:26;;;;;;;1.10;1.10;;;;;;;0.22;95.73;99854.97;5067467;28;20031;-70
2024/02/13 10:56:52;;;;;;;0.60;0.60;;;;;;;0.21;96.50;99858.31;5049417;28;20049;-72
2024/02/13 10:59:22;;;;;;;1.10;1.10;;;;;;;0.24;96.43;99855.84;5067435;28;20028;-72
2024/02/13 11:01:50;;;;;;;1.13;1.10;;;;;;;0.22;96.51;99854.97;5069013;28;20051;-72
2024/02/13 11:04:16;;;;;;;1.95;1.85;;;;;;;0.27;96.55;99865.28;5068079;28;20027;-72
2024/02/13 11:06:42;;;;;;;0.70;0.70;;;;;;;0.34;96.24;99850.16;5067284;28;20021;-73
2024/02/13 11:09:12;;;;;;;0.90;0.90;;;;;;;0.30;96.17;99868.78;5067487;28;20025;-73
2024/02/13 11:11:39;;;;;;;0.88;0.88;;;;;;;0.27;96.54;99860.19;5049342;28;20017;-72
2024/02/13 11:14:17;;;;;;;0.50;0.50;;;;;;;0.36;96.12;99857.84;5067586;28;20056;-72
2024/02/13 11:17:00;;;;;;;8.48;2.42;;;;;;;0.37;96.59;99854.47;5049167;28;20043;-73
2024/02/13 11:19:40;;;;;;;1.85;1.73;;;;;;;0.33;96.78;99847.56;5066090;28;20051;-72
2024/02/13 11:22:08;;;;;;;1.52;1.42;;;;;;;0.35;97.05;99851.03;5067435;28;20021;-72
2024/02/13 11:24:42;;;;;;;1.55;1.45;;;;;;;0.34;97.40;99854.38;5049127;28;20028;-71
2024/02/13 11:27:13;;;;;;;1.85;1.20;;;;;;;0.36;98.09;99850.19;5066994;28;20595;-71
2024/02/13 11:29:39;;;;;;;2.25;2.00;;;;;;;0.38;97.73;99855.34;5067123;28;20029;-71
2024/02/13 11:32:04;;;;;;;2.28;1.33;;;;;;;0.39;97.93;99862.16;5049085;28;20031;-71
2024/02/13 11:34:42;;;;;;;0.65;0.65;;;;;;;0.42;98.06;99857.13;5048608;28;20021;-71
2024/02/13 11:37:16;;;;;;;4.63;3.20;;;;;;;0.42;98.04;99859.69;5032405;28;20441;-72